createdAt,value
2024-01-24T00:02:17.367Z,98507.73
2024-01-24T00:05:05.627Z,98505.09
2024-01-24T00:07:56.309Z,98503.73
2024-01-24T00:10:53.421Z,98498.49
2024-01-24T00:13:42.141Z,98498.54
2024-01-24T00:16:50.854Z,98500.22
2024-01-24T00:20:04.980Z,98499.41
2024-01-24T00:23:12.619Z,98491.05
2024-01-24T00:26:04.644Z,98493.06
2024-01-24T00:28:51.954Z,98487.27
2024-01-24T00:31:50.112Z,98471.12
2024-01-24T00:34:57.572Z,98469.11
2024-01-24T00:37:49.682Z,98455.96
2024-01-24T00:40:19.669Z,98448.30
2024-01-24T00:43:34.009Z,98443.75
2024-01-24T00:46:15.097Z,98438.38
2024-01-24T00:49:05.140Z,98436.77
2024-01-24T00:52:30.965Z,98440.10
2024-01-24T00:55:31.654Z,98430.29
2024-01-24T00:58:19.542Z,98429.48
2024-01-24T01:00:50.603Z,98424.23
2024-01-24T01:03:40.168Z,98435.88
2024-01-24T01:06:28.405Z,98445.58
2024-01-24T01:08:57.674Z,98451.91
2024-01-24T01:11:45.426Z,98456.30
2024-01-24T01:14:12.923Z,98452.45
2024-01-24T01:16:44.599Z,98449.60
2024-01-24T01:19:13.720Z,98441.48
2024-01-24T01:21:42.437Z,98431.47
2024-01-24T01:24:11.472Z,98427.72
2024-01-24T01:26:38.888Z,98416.33
2024-01-24T01:29:10.914Z,98413.13
2024-01-24T01:31:38.331Z,98407.73
2024-01-24T01:34:05.777Z,98396.77
2024-01-24T01:36:33.499Z,98387.44
2024-01-24T01:39:00.997Z,98384.91
2024-01-24T01:41:28.919Z,98373.02
2024-01-24T01:43:56.331Z,98364.02
2024-01-24T01:46:27.388Z,98360.06
2024-01-24T01:48:58.488Z,98348.99
2024-01-24T01:51:28.259Z,98342.70
2024-01-24T01:53:57.450Z,98336.78
2024-01-24T01:56:26.653Z,98327.27
2024-01-24T01:58:54.704Z,98320.64
2024-01-24T02:04:18.441Z,98299.92
2024-01-24T02:06:46.178Z,98292.23
2024-01-24T02:09:13.808Z,98288.75
2024-01-24T02:11:45.326Z,98285.98
2024-01-24T02:14:13.952Z,98273.55
2024-01-24T02:16:41.552Z,98268.09
2024-01-24T02:19:09.114Z,98264.69
2024-01-24T02:21:37.652Z,98258.20
2024-01-24T02:24:13.913Z,98246.42
2024-01-24T02:26:41.049Z,98237.59
2024-01-24T02:29:08.283Z,98231.87
2024-01-24T02:31:35.836Z,98235.36
2024-01-24T02:34:03.519Z,98233.92
2024-01-24T02:36:30.918Z,98224.67
2024-01-24T02:38:58.999Z,98220.23
2024-01-24T02:41:26.674Z,98213.21
2024-01-24T02:43:54.010Z,98204.67
2024-01-24T02:46:21.399Z,98195.96
2024-01-24T02:48:48.642Z,98180.56
2024-01-24T02:51:27.954Z,98160.48
2024-01-24T02:53:55.398Z,98147.39
2024-01-24T02:56:22.917Z,98142.36
2024-01-24T02:58:50.386Z,98139.31
2024-01-24T03:01:17.912Z,98142.05
2024-01-24T03:03:46.051Z,98134.15
2024-01-24T03:06:13.521Z,98132.63
2024-01-24T03:08:58.885Z,98127.66
2024-01-24T03:11:26.600Z,98124.28
2024-01-24T03:13:53.898Z,98123.98
2024-01-24T03:16:21.309Z,98114.80
2024-01-24T03:18:49.685Z,98108.18
2024-01-24T03:21:19.228Z,98111.27
2024-01-24T03:23:46.533Z,98112.79
2024-01-24T03:26:16.925Z,98113.27
2024-01-24T03:28:44.523Z,98102.30
2024-01-24T03:31:12.156Z,98089.29
2024-01-24T03:33:39.407Z,98078.91
2024-01-24T03:36:06.836Z,98080.98
2024-01-24T03:38:34.788Z,98080.30
2024-01-24T03:41:02.288Z,98076.88
2024-01-24T03:43:29.590Z,98056.83
2024-01-24T03:45:57.216Z,98036.96
2024-01-24T03:48:24.899Z,98014.68
2024-01-24T03:50:53.438Z,98002.66
2024-01-24T03:53:20.787Z,97994.92
2024-01-24T03:55:48.061Z,97992.33
2024-01-24T03:58:15.619Z,97995.17
2024-01-24T04:00:42.998Z,98001.09
2024-01-24T04:03:10.392Z,98008.55
2024-01-24T04:05:37.715Z,98005.58
2024-01-24T04:08:05.465Z,97996.15
2024-01-24T04:10:33.048Z,97975.38
2024-01-24T04:13:00.268Z,97962.44
2024-01-24T04:15:28.729Z,97959.30
2024-01-24T04:17:56.915Z,97960.27
2024-01-24T04:20:24.244Z,97960.02
2024-01-24T04:22:51.403Z,97959.42
2024-01-24T04:25:19.375Z,97959.50
2024-01-24T04:27:49.608Z,97952.45
2024-01-24T04:30:17.226Z,97947.10
2024-01-24T04:32:45.401Z,97945.67
2024-01-24T04:35:13.551Z,97949.91
2024-01-24T04:37:41.376Z,97954.80
2024-01-24T04:40:09.431Z,97951.48
2024-01-24T04:42:37.180Z,97945.77
2024-01-24T04:45:04.743Z,97942.82
2024-01-24T04:47:32.313Z,97939.34
2024-01-24T04:50:00.007Z,97938.79
2024-01-24T04:52:27.228Z,97933.55
2024-01-24T04:54:54.524Z,97932.27
2024-01-24T04:57:21.761Z,97926.48
2024-01-24T04:59:55.749Z,97929.68
2024-01-24T05:02:24.833Z,97923.59
2024-01-24T05:04:52.165Z,97919.52
2024-01-24T05:07:19.658Z,97915.16
2024-01-24T05:09:47.113Z,97903.83
2024-01-24T05:12:14.676Z,97897.77
2024-01-24T05:14:42.084Z,97893.96
2024-01-24T05:17:09.295Z,97886.91
2024-01-24T05:19:37.274Z,97888.73
2024-01-24T05:22:04.724Z,97882.16
2024-01-24T05:24:32.107Z,97877.55
2024-01-24T05:26:59.405Z,97876.10
2024-01-24T05:29:27.136Z,97870.58
2024-01-24T05:31:54.670Z,97862.15
2024-01-24T05:34:21.816Z,97849.72
2024-01-24T05:37:04.286Z,97845.88
2024-01-24T05:39:32.425Z,97836.84
2024-01-24T05:42:01.204Z,97830.30
2024-01-24T05:44:32.730Z,97826.68
2024-01-24T05:47:00.689Z,97823.73
2024-01-24T05:49:31.398Z,97817.64
2024-01-24T05:52:10.301Z,97805.47
2024-01-24T05:54:57.804Z,97801.73
2024-01-24T05:57:26.397Z,97796.96
2024-01-24T05:59:53.741Z,97785.29
2024-01-24T06:02:21.422Z,97785.96
2024-01-24T06:04:49.959Z,97781.39
2024-01-24T06:07:20.752Z,97779.64
2024-01-24T08:04:34.847Z,97537.55
2024-01-24T08:08:43.909Z,97514.28
2024-01-24T08:12:38.010Z,97511.17
2024-01-24T08:17:00.754Z,97515.42
2024-01-24T08:24:20.605Z,97507.95
2024-01-24T08:28:12.582Z,97510.42
2024-01-24T08:32:03.282Z,97502.36
2024-01-24T08:35:53.182Z,97511.50
2024-01-24T08:39:41.088Z,97499.98
2024-01-24T08:43:28.831Z,97489.33
2024-01-24T08:47:16.565Z,97476.54
2024-01-24T08:51:04.271Z,97469.33
2024-01-24T08:54:55.034Z,97466.33
2024-01-24T08:58:42.868Z,97467.23
2024-01-24T09:01:53.328Z,97465.81
2024-01-24T09:05:43.470Z,97460.17
2024-01-24T09:09:40.959Z,97452.84
2024-01-24T09:13:33.383Z,97444.94
2024-01-24T09:17:22.018Z,97438.11
2024-01-24T09:21:11.522Z,97437.04
2024-01-24T09:24:59.577Z,97430.14
2024-01-24T09:28:47.065Z,97419.25
2024-01-24T09:32:34.962Z,97409.61
2024-01-24T09:36:22.750Z,97399.18
2024-01-24T09:40:12.084Z,97379.17
2024-01-24T09:43:59.760Z,97368.64
2024-01-24T09:47:47.794Z,97374.82
2024-01-24T09:51:36.343Z,97382.04
2024-01-24T09:55:25.630Z,97380.34
2024-01-24T09:59:13.437Z,97370.69
2024-01-24T10:03:01.365Z,97365.96
2024-01-24T10:06:52.186Z,97359.45
2024-01-24T10:10:42.605Z,97353.23
2024-01-24T10:14:32.601Z,97350.27
2024-01-24T10:18:23.378Z,97342.21
2024-01-24T10:22:11.421Z,97342.64
2024-01-24T10:26:00.218Z,97349.99
2024-01-24T10:29:48.105Z,97343.94
2024-01-24T10:33:36.167Z,97330.13
2024-01-24T10:37:25.566Z,97323.62
2024-01-24T10:41:16.101Z,97327.69
2024-01-24T10:45:09.656Z,97324.47
2024-01-24T10:48:58.411Z,97319.44
2024-01-24T10:52:47.535Z,97308.32
2024-01-24T10:56:35.076Z,97299.08
2024-01-24T11:00:26.946Z,97299.86
2024-01-24T11:04:14.719Z,97288.95
2024-01-24T11:08:05.376Z,97257.95
2024-01-24T11:11:53.864Z,97258.17
2024-01-24T11:15:44.875Z,97250.73
2024-01-24T11:19:35.420Z,97254.42
2024-01-24T11:23:23.272Z,97247.02
2024-01-24T11:27:12.924Z,97241.94
2024-01-24T11:30:40.822Z,97245.16
2024-01-24T11:34:27.751Z,97241.66
2024-01-24T11:38:26.158Z,97237.07
2024-01-24T11:42:12.349Z,97218.98
2024-01-24T11:46:18.544Z,97218.45
2024-01-24T11:50:11.113Z,97210.25
2024-01-24T11:54:02.027Z,97221.76
2024-01-24T11:57:50.106Z,97203.90
2024-01-24T12:01:02.394Z,97206.44
2024-01-24T12:04:51.279Z,97206.08
2024-01-24T12:08:39.111Z,97199.67
2024-01-24T12:12:28.347Z,97199.50
2024-01-24T12:16:16.059Z,97197.45
2024-01-24T12:20:04.426Z,97212.46
2024-01-24T12:23:55.301Z,97185.00
2024-01-24T12:27:43.269Z,97196.96
2024-01-24T12:31:32.377Z,97190.83
2024-01-24T12:35:23.962Z,97185.16
2024-01-24T12:39:10.531Z,97190.81
2024-01-24T12:42:58.400Z,97173.98
2024-01-24T12:46:48.899Z,97159.20
2024-01-24T12:50:36.736Z,97172.92
2024-01-24T12:54:24.324Z,97170.70
2024-01-24T12:58:12.292Z,97165.30
2024-01-24T13:01:59.984Z,97158.95
2024-01-24T13:05:51.203Z,97157.26
2024-01-24T13:09:40.112Z,97159.38
2024-01-24T13:13:24.376Z,97158.86
2024-01-24T13:17:12.108Z,97142.13
2024-01-24T13:21:00.259Z,97128.77
2024-01-24T13:24:53.773Z,97147.23
2024-01-24T13:28:38.052Z,97130.64
2024-01-24T13:32:28.051Z,97157.29
2024-01-24T13:36:17.025Z,97173.92
2024-01-24T13:40:05.095Z,97182.11
2024-01-24T13:43:54.737Z,97209.55
2024-01-24T13:47:22.073Z,97246.20
2024-01-24T13:51:09.952Z,97269.08
2024-01-24T13:54:57.688Z,97290.00
2024-01-24T13:58:47.149Z,97273.20
2024-01-24T14:06:21.803Z,97269.05
2024-01-24T14:10:09.728Z,97275.64
2024-01-24T14:13:57.308Z,97267.61
2024-01-24T14:17:45.070Z,97258.66
2024-01-24T14:21:32.828Z,97255.17
2024-01-24T14:25:20.594Z,97232.87
2024-01-24T14:29:08.252Z,97244.68
2024-01-24T14:32:56.578Z,97250.50
2024-01-24T14:36:49.697Z,97237.40
2024-01-24T14:40:38.034Z,97237.47
2024-01-24T14:44:25.532Z,97253.15
2024-01-24T14:48:13.485Z,97252.55
2024-01-24T14:52:03.990Z,97261.14
2024-01-24T14:55:51.678Z,97263.49
2024-01-24T14:59:42.937Z,97259.48
2024-01-24T15:03:30.928Z,97259.84
2024-01-24T15:07:18.476Z,97264.36
2024-01-24T15:11:06.289Z,97270.11
2024-01-24T15:14:53.899Z,97265.52
2024-01-24T15:18:41.709Z,97269.83
2024-01-24T15:22:30.564Z,97273.28
2024-01-24T15:26:18.343Z,97283.38
2024-01-24T15:30:07.274Z,97279.27
2024-01-24T15:33:54.595Z,97277.40
2024-01-24T15:37:42.264Z,97282.40
2024-01-24T15:41:30.479Z,97279.39
2024-01-24T15:45:18.116Z,97278.59
2024-01-24T15:49:06.576Z,97290.27
2024-01-24T15:52:54.454Z,97297.50
2024-01-24T15:56:44.990Z,97292.63
2024-01-24T16:00:33.531Z,97288.91
2024-01-24T16:04:20.699Z,97283.13
2024-01-24T16:08:08.318Z,97284.55
2024-01-24T16:11:57.409Z,97283.36
2024-01-24T16:15:46.369Z,97286.59
2024-01-24T16:19:34.460Z,97296.96
2024-01-24T16:23:21.879Z,97297.52
2024-01-24T16:27:09.947Z,97305.87
2024-01-24T16:34:42.494Z,97299.77
2024-01-24T16:38:30.206Z,97318.80
2024-01-24T16:42:18.142Z,97316.67
2024-01-24T16:46:06.700Z,97330.18
2024-01-24T16:49:54.485Z,97336.54
2024-01-24T16:53:41.999Z,97337.55
2024-01-24T16:57:29.802Z,97341.29
2024-01-24T17:01:17.633Z,97350.42
2024-01-24T17:05:05.130Z,97355.41
2024-01-24T17:08:52.655Z,97361.12
2024-01-24T17:12:40.350Z,97355.73
2024-01-24T17:16:28.449Z,97367.63
2024-01-24T17:20:16.520Z,97365.99
2024-01-24T17:24:04.776Z,97370.42
2024-01-24T17:27:52.752Z,97369.20
2024-01-24T17:31:40.687Z,97373.77
2024-01-24T17:35:28.560Z,97377.83
2024-01-24T17:39:18.962Z,97376.82
2024-01-24T17:43:07.343Z,97375.09
2024-01-24T17:46:55.080Z,97366.84
2024-01-24T17:50:43.373Z,97376.27
2024-01-24T17:54:35.223Z,97368.52
2024-01-24T17:58:22.632Z,97377.30
2024-01-24T18:02:10.520Z,97375.34
2024-01-24T18:05:58.782Z,97376.98
2024-01-24T18:09:46.681Z,97376.38
2024-01-24T18:13:34.737Z,97372.55
2024-01-24T18:17:23.812Z,97371.80
2024-01-24T18:20:13.861Z,97374.07
2024-01-24T18:22:45.358Z,97374.70
2024-01-24T18:25:33.388Z,97374.79
2024-01-24T18:28:00.819Z,97365.42
2024-01-24T18:30:34.687Z,97362.87
2024-01-24T18:33:20.565Z,97364.25
2024-01-24T18:36:11.172Z,97361.25
2024-01-24T18:38:54.219Z,97363.05
2024-01-24T18:42:41.483Z,97357.83
2024-01-24T18:46:29.230Z,97350.16
2024-01-24T18:50:19.612Z,97360.99
2024-01-24T18:54:07.168Z,97354.55
2024-01-24T18:57:58.051Z,97359.81
2024-01-24T19:01:48.657Z,97356.64
2024-01-24T19:05:38.671Z,97358.46
2024-01-24T19:09:23.564Z,97357.96
2024-01-24T19:12:51.914Z,97359.09
2024-01-24T19:16:38.858Z,97362.95
2024-01-24T19:20:29.374Z,97364.42
2024-01-24T19:24:18.685Z,97355.30
2024-01-24T19:28:06.984Z,97356.42
2024-01-24T19:31:55.820Z,97347.66
2024-01-24T19:35:53.519Z,97352.72
2024-01-24T19:39:41.377Z,97361.67
2024-01-24T19:43:32.075Z,97353.59
2024-01-24T19:47:19.991Z,97357.67
2024-01-24T19:51:09.258Z,97358.72
2024-01-24T19:54:56.961Z,97355.55
2024-01-24T19:58:44.954Z,97351.44
2024-01-24T20:02:32.615Z,97358.38
2024-01-24T20:06:20.878Z,97360.53
2024-01-24T20:10:09.689Z,97360.44
2024-01-24T20:13:57.605Z,97362.27
2024-01-24T20:17:45.634Z,97354.93
2024-01-24T20:21:33.873Z,97356.45
2024-01-24T20:25:24.489Z,97366.48
2024-01-24T20:29:11.843Z,97366.66
2024-01-24T20:33:04.145Z,97372.75
2024-01-24T20:40:38.946Z,97376.71
2024-01-24T20:44:27.335Z,97371.20
2024-01-24T20:48:16.583Z,97372.56
2024-01-24T20:55:49.352Z,97369.69
2024-01-24T20:59:37.227Z,97372.17
2024-01-24T21:03:25.855Z,97372.14
2024-01-24T21:07:14.479Z,97364.95
2024-01-24T21:11:04.135Z,97367.41
2024-01-24T21:14:50.312Z,97365.84
2024-01-24T21:18:39.075Z,97366.88
2024-01-24T21:22:26.275Z,97367.86
2024-01-24T21:30:01.952Z,97374.73
2024-01-24T21:33:49.530Z,97379.08
2024-01-24T21:37:38.595Z,97391.36
2024-01-24T21:41:26.334Z,97389.85
2024-01-24T21:45:08.956Z,97399.62
2024-01-24T21:47:37.677Z,97401.54
2024-01-24T21:50:07.574Z,97411.62
2024-01-24T21:52:35.183Z,97410.53
2024-01-24T21:55:03.089Z,97407.89
2024-01-24T21:57:53.781Z,97411.19
2024-01-24T22:00:21.392Z,97415.60
2024-01-24T22:02:53.943Z,97410.98
2024-01-24T22:05:22.925Z,97412.20
2024-01-24T22:07:51.578Z,97410.14
2024-01-24T22:10:19.106Z,97408.77
2024-01-24T22:12:53.651Z,97406.95
2024-01-24T22:15:21.288Z,97400.52
2024-01-24T22:17:48.492Z,97405.52
2024-01-24T22:20:15.997Z,97410.27
2024-01-24T22:25:16.523Z,97412.84
2024-01-24T22:28:42.481Z,97414.48
2024-01-24T22:31:34.626Z,97409.29
2024-01-24T22:34:25.326Z,97405.41
2024-01-24T22:37:01.038Z,97405.42
2024-01-24T22:39:29.622Z,97404.32
2024-01-24T22:42:19.938Z,97407.83
2024-01-24T22:45:17.311Z,97409.95
2024-01-24T22:47:53.993Z,97419.92
2024-01-24T22:50:29.451Z,97411.43
2024-01-24T22:52:57.136Z,97404.11
2024-01-24T22:55:45.029Z,97409.52
2024-01-24T22:58:17.367Z,97410.58
2024-01-24T23:01:08.599Z,97404.28
2024-01-24T23:03:54.194Z,97401.09
2024-01-24T23:09:42.005Z,97390.45
2024-01-24T23:12:10.612Z,97400.79
2024-01-24T23:14:58.210Z,97406.80
2024-01-24T23:20:50.950Z,97405.63
2024-01-24T23:23:36.924Z,97410.34
2024-01-24T23:26:22.830Z,97406.50
2024-01-24T23:29:29.906Z,97404.89
2024-01-24T23:31:59.010Z,97407.81
2024-01-24T23:34:41.610Z,97405.95
2024-01-24T23:37:36.510Z,97405.70
2024-01-24T23:43:15.068Z,97410.02
2024-01-24T23:46:58.847Z,97409.98
2024-01-24T23:50:19.204Z,97400.04
2024-01-24T23:56:10.651Z,97395.06
